Flight Track Log - Related Links

Times and Time Zones

All times are in EST time to prevent confusion due to time zone crossing. See the N804JJ flight status page for this flight to view local times or setup timezone preferences in your user account.

Time Position Orientation Groundspeed Altitude Reporting Facility
EST Latitude Longitude Course Direction KTS MPH feet Rate Location/Type
Tue 10:34:18 PM 40.9000 -74.0333 311° West 200 230 1,900  Level New York TRACON
Tue 10:35:12 PM 40.9333 -74.0833 311° West 232 267 2,100 1,421 Climbing New York TRACON
Tue 10:36:12 PM 40.9167 -74.1667 255° West 237 273 4,600 2,800 Climbing New York TRACON
Tue 10:37:12 PM 40.9000 -74.2500 255° West 270 311 7,700 2,856 Climbing New York TRACON
Tue 10:39:40 PM 40.7719 -74.4839 234° Southwest 318 366 14,500 2,596 Climbing New York Center
Tue 10:40:40 PM 40.7125 -74.5819 231° Southwest 340 391 16,700 2,050 Climbing New York Center
Tue 10:41:40 PM 40.6575 -74.6719 231° Southwest 355 409 18,600 2,200 Climbing New York Center
Tue 10:42:40 PM 40.5958 -74.7750 232° Southwest 360 414 21,100 2,200 Climbing New York Center
Tue 10:43:40 PM 40.5319 -74.8778 231° Southwest 365 420 23,000 2,100 Climbing New York Center
Tue 10:44:40 PM 40.4656 -74.9831 230° Southwest 370 426 25,300 1,900 Climbing New York Center
Tue 10:45:40 PM 40.4014 -75.0881 231° Southwest 370 426 26,800 1,800 Climbing New York Center
Tue 10:46:40 PM 40.3342 -75.2144 235° Southwest 383 441 28,900 1,700 Climbing New York Center
Tue 10:47:40 PM 40.2656 -75.3217 230° Southwest 389 448 30,200 1,300 Climbing New York Center
Tue 10:48:40 PM 40.1967 -75.4314 231° Southwest 394 453 31,500 1,100 Climbing New York Center
Tue 10:49:40 PM 40.1292 -75.5489 233° Southwest 404 465 32,400 1,100 Climbing New York Center
Tue 10:50:40 PM 40.0622 -75.6583 231° Southwest 404 465 33,700 1,100 Climbing New York Center
Tue 10:51:40 PM 39.9911 -75.7644 229° Southwest 404 465 34,600 900 Climbing New York Center
Tue 10:52:40 PM 39.9239 -75.8761 232° Southwest 398 458 35,500 650 Climbing New York Center
Tue 10:53:40 PM 39.8544 -75.9844 230° Southwest 398 458 35,900 250 Climbing New York Center
Tue 10:54:40 PM 39.7847 -76.0956 231° Southwest 403 464 36,000 30 Climbing New York Center
Tue 10:57:03 PM 39.6236 -76.3511 231° Southwest 408 470 36,000  Level Washington Center
Tue 10:58:01 PM 39.5478 -76.4689 230° Southwest 414 476 36,000  Level Washington Center
Tue 10:59:01 PM 39.4656 -76.5997 231° Southwest 427 491 36,000  Level Washington Center
Tue 11:00:03 PM 39.3897 -76.7167 230° Southwest 432 497 36,000  Level Washington Center
Tue 11:01:03 PM 39.3092 -76.8308 228° Southwest 432 497 36,000  Level Washington Center
Tue 11:02:02 PM 39.2500 -76.9208 230° Southwest 427 491 36,000  Level Washington Center
Tue 11:03:01 PM 39.1733 -77.0561 234° Southwest 427 491 36,000  Level Washington Center
Tue 11:04:02 PM 39.1031 -77.1750 233° Southwest 427 491 36,000  Level Washington Center
Tue 11:05:03 PM 39.0286 -77.2911 230° Southwest 432 497 36,000  Level Washington Center
Tue 11:06:03 PM 38.9519 -77.4039 229° Southwest 432 497 36,000  Level Washington Center
Tue 11:07:01 PM 38.8731 -77.5114 227° Southwest 426 490 36,000  Level Washington Center
Tue 11:08:02 PM 38.7961 -77.6239 229° Southwest 426 490 36,000  Level Washington Center
Tue 11:09:01 PM 38.7172 -77.7361 228° Southwest 426 490 36,000  Level Washington Center
Tue 11:10:01 PM 38.6419 -77.8483 229° Southwest 426 490 36,000  Level Washington Center
Tue 11:11:02 PM 38.5647 -77.9628 229° Southwest 426 490 36,000  Level Washington Center
Tue 11:12:02 PM 38.4872 -78.0878 232° Southwest 421 484 36,000  Level Washington Center
Tue 11:13:02 PM 38.4181 -78.2019 232° Southwest 415 478 36,000  Level Washington Center
Tue 11:14:01 PM 38.3425 -78.3183 230° Southwest 415 478 36,000  Level Washington Center
Tue 11:15:01 PM 38.2711 -78.4347 232° Southwest 420 483 36,000  Level Washington Center
Tue 11:16:02 PM 38.2100 -78.5408 234° Southwest 420 483 36,000  Level Washington Center
Tue 11:17:02 PM 38.1297 -78.6669 231° Southwest 420 483 36,000  Level Washington Center
Tue 11:18:03 PM 38.0581 -78.7800 231° Southwest 420 483 36,000  Level Washington Center
Tue 11:19:01 PM 37.9839 -78.8931 230° Southwest 420 483 36,000  Level Washington Center
Tue 11:20:01 PM 37.9119 -79.0083 232° Southwest 420 483 36,000  Level Washington Center
Tue 11:21:02 PM 37.8486 -79.1078 231° Southwest 420 483 36,000  Level Washington Center
Tue 11:22:01 PM 37.7764 -79.2203 231° Southwest 415 478 36,000  Level Washington Center
Tue 11:23:01 PM 37.6933 -79.3422 229° Southwest 415 478 36,000  Level Washington Center
Tue 11:24:01 PM 37.6275 -79.4439 231° Southwest 415 478 36,000  Level Washington Center
Tue 11:25:02 PM 37.5464 -79.5681 231° Southwest 415 478 36,000  Level Washington Center
Tue 11:26:01 PM 37.4825 -79.6667 231° Southwest 415 478 36,000  Level Washington Center
Tue 11:27:01 PM 37.4053 -79.7856 231° Southwest 424 488 36,000  Level Washington Center
Tue 11:28:47 PM 37.2756 -79.9806 230° Southwest 414 476 36,000  Level Atlanta Center
Tue 11:29:47 PM 37.2022 -80.0914 230° Southwest 409 471 36,000  Level Atlanta Center
Tue 11:30:47 PM 37.1325 -80.1964 230° Southwest 409 471 36,000  Level Atlanta Center
Tue 11:31:47 PM 37.0508 -80.3172 230° Southwest 409 471 36,000  Level Atlanta Center
Tue 11:32:47 PM 36.9789 -80.4272 231° Southwest 409 471 36,000  Level Atlanta Center
Tue 11:33:47 PM 36.9069 -80.5344 230° Southwest 409 471 36,000  Level Atlanta Center
Tue 11:34:47 PM 36.8350 -80.6414 230° Southwest 409 471 36,000  Level Atlanta Center
Tue 11:35:47 PM 36.7708 -80.7347 229° Southwest 409 471 36,000  Level Atlanta Center
Tue 11:36:47 PM 36.6986 -80.8439 230° Southwest 409 471 36,000  Level Atlanta Center
Tue 11:37:47 PM 36.6264 -80.9503 230° Southwest 409 471 36,000  Level Atlanta Center
Tue 11:38:47 PM 36.5517 -81.0564 229° Southwest 409 471 36,000  Level Atlanta Center
Tue 11:39:47 PM 36.4833 -81.1650 232° Southwest 409 471 36,000  Level Atlanta Center
Tue 11:40:47 PM 36.4108 -81.2706 230° Southwest 409 471 36,000  Level Atlanta Center
Tue 11:41:47 PM 36.3403 -81.3761 230° Southwest 409 471 36,000  Level Atlanta Center
Tue 11:42:47 PM 36.2653 -81.4817 229° Southwest 409 471 36,000  Level Atlanta Center
Tue 11:43:47 PM 36.1922 -81.5869 229° Southwest 414 476 36,000  Level Atlanta Center
Tue 11:44:47 PM 36.1214 -81.6892 229° Southwest 407 468 36,000  Level Atlanta Center
Tue 11:45:47 PM 36.0483 -81.7967 230° Southwest 402 463 36,000  Level Atlanta Center
Tue 11:46:47 PM 35.9728 -81.8989 228° Southwest 407 468 36,000  Level Atlanta Center
Tue 11:47:47 PM 35.9036 -82.0006 230° Southwest 407 468 36,000  Level Atlanta Center
Tue 11:48:47 PM 35.8303 -82.1025 228° Southwest 401 461 36,000  Level Atlanta Center
Tue 11:49:47 PM 35.7589 -82.2092 231° Southwest 401 461 36,000  Level Atlanta Center
Tue 11:50:47 PM 35.6792 -82.3208 229° Southwest 401 461 36,000  Level Atlanta Center
Tue 11:51:47 PM 35.6053 -82.4194 227° Southwest 394 453 36,000  Level Atlanta Center
Tue 11:52:47 PM 35.5336 -82.5228 230° Southwest 394 453 36,000  Level Atlanta Center
Tue 11:53:47 PM 35.4617 -82.6211 228° Southwest 394 453 36,000 -300 Level Atlanta Center
Tue 11:54:47 PM 35.3961 -82.7164 230° Southwest 399 459 35,400 -1,100 Descending Atlanta Center
Tue 11:55:47 PM 35.3219 -82.8194 229° Southwest 407 468 33,800 -1,150 Descending Atlanta Center
Tue 11:56:47 PM 35.2375 -82.9378 229° Southwest 413 475 33,100 -650 Descending Atlanta Center
Tue 11:57:47 PM 35.1717 -83.0325 230° Southwest 413 475 32,500 -950 Descending Atlanta Center
Tue 11:58:47 PM 35.0975 -83.1350 229° Southwest 408 470 31,200 -1,550 Descending Atlanta Center
Tue 11:59:47 PM 35.0208 -83.2397 228° Southwest 414 476 29,400 -1,750 Descending Atlanta Center
Wed 12:00:47 AM 34.9444 -83.3444 228° Southwest 414 476 27,700 -1,700 Descending Atlanta Center
Wed 12:01:47 AM 34.8675 -83.4464 227° Southwest 414 476 26,000 -1,600 Descending Atlanta Center
Wed 12:02:47 AM 34.7972 -83.5406 228° Southwest 402 463 24,500 -2,100 Descending Atlanta Center
Wed 12:03:47 AM 34.7264 -83.6344 227° Southwest 387 445 21,800 -2,750 Descending Atlanta Center
Wed 12:04:47 AM 34.6536 -83.7333 228° Southwest 387 445 19,000 -2,550 Descending Atlanta Center
Wed 12:05:47 AM 34.5831 -83.8394 231° Southwest 382 440 16,700 -2,350 Descending Atlanta Center
Wed 12:06:47 AM 34.5183 -83.9278 228° Southwest 371 427 14,300 -2,300 Descending Atlanta Center
Wed 12:07:47 AM 34.4539 -84.0111 227° Southwest 353 406 12,100 -2,200 Descending Atlanta Center
Wed 12:08:47 AM 34.3892 -84.0892 225° Southwest 334 384 9,900 -2,100 Descending Atlanta Center
Wed 12:09:47 AM 34.3264 -84.1669 226° Southwest 328 377 7,900 -1,500 Descending Atlanta Center
Wed 12:10:47 AM 34.2719 -84.2425 229° Southwest 316 364 6,900 -1,250 Descending Atlanta Center
Wed 12:11:47 AM 34.2219 -84.3075 227° Southwest 290 334 5,400 -1,450 Descending Atlanta Center
Wed 12:12:47 AM 34.1717 -84.3778 229° Southwest 280 322 4,000 -1,100 Descending Atlanta Center
Wed 12:13:47 AM 34.1297 -84.4378 230° Southwest 274 315 3,200 -800 Descending Atlanta Center
Wed 12:17:00 AM 34.0375 -84.5444 228° Southwest  Level FlightAware Approximate
Wed 12:24:00 AM 34.0000 -84.5833 220° Southwest  Level FlightAware Approximate
Wed 12:25:00 AM 34.0132 -84.5971 220° Southwest  Level Estimated
Wed 12:26:00 AM 34.0132 -84.5971 220° Southwest  Level Estimated
Wed 12:27:00 AM 34.0132 -84.5971 220° Southwest  Level Estimated
Wed 12:28:00 AM 34.0132 -84.5971 220° Southwest  Level Estimated
Wed 12:29:00 AM 34.0132 -84.5971 220° Southwest  Level Estimated
Wed 12:30:00 AM 34.0132 -84.5971 220° Southwest  Level Estimated
Wed 12:31:00 AM 34.0132 -84.5971 220° Southwest  Level Estimated
Wed 12:32:00 AM 34.0132 -84.5971 220° Southwest  Level Estimated

Login

Don't have an account? Register now (free) for customized features, flight alerts, and more!